Time;durP1;ratioP1;P1;durP2;ratioP2;P2;SDS_P1;SDS_P2;PMS_P1;PMS_P2;Temp;Humidity;BMP_temperature;BMP_pressure;BME280_temperature;BME280_humidity;BME280_pressure;Samples;Min_cycle;Max_cycle;Signal;HPM_P1;HPM_P2
2022/04/02 00:02:37;;;;;;;;;;;;;;;12.04;48.35;98605.44;1659219;86;20205;-59
2022/04/02 00:05:43;;;;;;;;;;;;;;;12.02;48.40;98611.67;1693524;85;20393;-59
2022/04/02 00:08:48;;;;;;;;;;;;;;;11.98;48.44;98610.47;1695389;85;20230;-60
2022/04/02 00:11:55;;;;;;;;;;;;;;;11.96;48.69;98627.67;1695625;85;20254;-57
2022/04/02 00:15:00;;;;;;;;;;;;;;;11.95;48.69;98651.53;1693320;85;20230;-57
2022/04/02 00:18:04;;;;;;;;;;;;;;;11.96;48.50;98643.60;1695988;83;20589;-59
2022/04/02 00:21:08;;;;;;;;;;;;;;;11.97;48.43;98628.81;1696828;84;20213;-57
2022/04/02 00:24:13;;;;;;;;;;;;;;;11.97;48.40;98626.07;1695745;85;20197;-57
2022/04/02 00:27:19;;;;;;;;;;;;;;;11.94;48.77;98618.30;1715382;84;20251;-59
2022/04/02 00:30:24;;;;;;;;;;;;;;;11.92;49.21;98610.02;1659262;86;20276;-57
2022/04/02 00:33:28;;;;;;;;;;;;;;;11.86;49.74;98602.70;1680267;84;20599;-56
2022/04/02 00:36:37;;;;;;;;;;;;;;;11.79;49.90;98592.33;1680790;85;20230;-59
2022/04/02 00:39:40;;;;;;;;;;;;;;;11.73;49.85;98583.65;1679742;85;20203;-57
2022/04/02 00:42:45;;;;;;;;;;;;;;;11.67;49.88;98596.89;1680356;85;20202;-58
2022/04/02 00:45:51;;;;;;;;;;;;;;;11.63;49.89;98601.98;1680204;85;20238;-58
2022/04/02 00:48:57;;;;;;;;;;;;;;;11.62;49.74;98593.95;1680586;85;20198;-58
2022/04/02 00:52:02;;;;;;;;;;;;;;;11.62;49.67;98584.36;1680651;85;20227;-57
2022/04/02 00:55:07;;;;;;;;;;;;;;;11.59;49.78;98583.45;1680754;85;20194;-57
2022/04/02 00:58:13;;;;;;;;;;;;;;;11.55;49.84;98571.25;1680419;85;20207;-58
2022/04/02 01:01:17;;;;;;;;;;;;;;;11.53;50.06;98576.11;1698781;84;20203;-58
2022/04/02 01:04:24;;;;;;;;;;;;;;;11.51;50.14;98561.82;1680818;85;20183;-57
2022/04/02 01:07:31;;;;;;;;;;;;;;;11.50;50.18;98556.86;1680591;85;20252;-59
2022/04/02 01:10:35;;;;;;;;;;;;;;;11.51;50.15;98557.70;1680722;85;20183;-59
2022/04/02 01:13:41;;;;;;;;;;;;;;;11.51;50.18;98562.63;1680698;85;20207;-59
2022/04/02 01:16:45;;;;;;;;;;;;;;;11.51;50.22;98557.70;1679840;85;20207;-58
2022/04/02 01:19:53;;;;;;;;;;;;;;;11.52;50.27;98548.41;1680579;85;20230;-58
2022/04/02 01:22:59;;;;;;;;;;;;;;;11.53;50.31;98541.86;1680578;85;20214;-58
2022/04/02 01:26:09;;;;;;;;;;;;;;;11.54;50.23;98545.73;1680556;85;20203;-59
2022/04/02 01:29:14;;;;;;;;;;;;;;;11.57;50.17;98536.25;1680814;85;20191;-57
2022/04/02 01:32:21;;;;;;;;;;;;;;;11.55;50.18;98529.63;1680652;85;20190;-57
2022/04/02 01:35:31;;;;;;;;;;;;;;;11.54;50.21;98534.78;1695826;85;20265;-57
2022/04/02 01:38:37;;;;;;;;;;;;;;;11.50;50.25;98521.24;1695845;85;20546;-57
2022/04/02 01:41:42;;;;;;;;;;;;;;;11.47;50.36;98519.48;1695836;84;20537;-58
2022/04/02 01:44:51;;;;;;;;;;;;;;;11.40;50.55;98507.77;1696052;84;20242;-58
2022/04/02 01:47:59;;;;;;;;;;;;;;;11.34;50.68;98504.55;1693405;84;20226;-58
2022/04/02 01:51:10;;;;;;;;;;;;;;;11.28;50.82;98501.34;1695284;85;20202;-58
2022/04/02 01:54:14;;;;;;;;;;;;;;;11.21;50.94;98500.59;1695579;85;20559;-58
2022/04/02 01:57:22;;;;;;;;;;;;;;;11.15;51.06;98494.63;1695832;83;20190;-58
2022/04/02 02:00:28;;;;;;;;;;;;;;;11.07;51.10;98482.63;1695907;84;20646;-57
2022/04/02 02:03:33;;;;;;;;;;;;;;;11.03;51.35;98489.07;1694721;85;20202;-58
2022/04/02 02:06:40;;;;;;;;;;;;;;;10.96;51.44;98484.69;1695368;85;20262;-58
2022/04/02 02:09:45;;;;;;;;;;;;;;;10.93;51.61;98484.63;1695548;85;20202;-57
2022/04/02 02:13:06;;;;;;;;;;;;;;;10.92;51.89;98477.48;1714706;84;20244;-58
2022/04/02 02:16:12;;;;;;;;;;;;;;;10.94;52.01;98477.27;1664226;85;20221;-58
2022/04/02 02:19:18;;;;;;;;;;;;;;;10.91;51.94;98474.98;1693740;84;20206;-57
2022/04/02 02:22:24;;;;;;;;;;;;;;;10.88;52.07;98476.24;1695693;85;20225;-58
2022/04/02 02:25:29;;;;;;;;;;;;;;;10.88;52.36;98485.01;1694769;85;20518;-58
2022/04/02 02:28:34;;;;;;;;;;;;;;;10.85;52.44;98472.59;1694020;85;20577;-59
2022/04/02 02:31:42;;;;;;;;;;;;;;;10.84;52.59;98457.24;1695686;83;20198;-58
2022/04/02 02:38:22;;;;;;;;;;;;;;;10.83;52.75;98445.16;1691464;85;20278;-58
2022/04/02 02:41:28;;;;;;;;;;;;;;;10.84;53.01;98434.50;1703458;84;20220;-57
2022/04/02 02:44:35;;;;;;;;;;;;;;;10.84;53.22;98434.50;1708227;84;20244;-57
2022/04/02 02:47:42;;;;;;;;;;;;;;;10.83;53.32;98434.20;1703946;84;20572;-58
2022/04/02 02:50:49;;;;;;;;;;;;;;;10.81;53.46;98433.58;1705956;84;20224;-57
2022/04/02 02:53:55;;;;;;;;;;;;;;;10.80;53.66;98431.92;1708416;84;20220;-58
2022/04/02 02:57:00;;;;;;;;;;;;;;;10.79;53.74;98438.44;1708406;84;20208;-60
2022/04/02 03:00:07;;;;;;;;;;;;;;;10.78;53.93;98432.14;1708401;84;20177;-59
2022/04/02 03:03:18;;;;;;;;;;;;;;;10.78;54.05;98434.03;1708456;84;20268;-59
2022/04/02 03:06:24;;;;;;;;;;;;;;;10.77;54.14;98429.08;1684728;84;20550;-57
2022/04/02 03:09:28;;;;;;;;;;;;;;;10.73;54.41;98436.08;1708331;84;20197;-57
2022/04/02 03:12:35;;;;;;;;;;;;;;;10.69;54.81;98431.29;1708404;84;20291;-58
2022/04/02 03:15:39;;;;;;;;;;;;;;;10.66;54.95;98426.23;1708342;84;20568;-57
2022/04/02 03:18:46;;;;;;;;;;;;;;;10.63;55.26;98430.27;1708382;84;20229;-57
2022/04/02 03:21:53;;;;;;;;;;;;;;;10.63;55.48;98429.42;1707927;84;20247;-58
2022/04/02 03:24:59;;;;;;;;;;;;;;;10.64;55.62;98428.38;1707955;84;20292;-58
2022/04/02 03:28:06;;;;;;;;;;;;;;;10.64;55.80;98424.27;1708044;84;20216;-58
2022/04/02 03:31:12;;;;;;;;;;;;;;;10.66;55.93;98431.70;1708072;84;20266;-58
2022/04/02 03:34:18;;;;;;;;;;;;;;;10.68;56.07;98418.64;1708193;84;20273;-59
2022/04/02 03:37:24;;;;;;;;;;;;;;;10.70;56.10;98417.90;1669405;84;20559;-57
2022/04/02 03:40:32;;;;;;;;;;;;;;;10.70;56.18;98413.27;1646687;87;20328;-57
2022/04/02 03:43:39;;;;;;;;;;;;;;;10.72;56.30;98410.31;1667497;86;20238;-57
2022/04/02 03:50:14;;;;;;;;;;;;;;;10.82;56.63;98395.56;1628287;88;20213;-58
2022/04/02 03:53:21;;;;;;;;;;;;;;;10.90;56.69;98389.80;1605047;89;20572;-57
2022/04/02 03:56:27;;;;;;;;;;;;;;;10.96;56.83;98386.99;1654984;87;20233;-57
2022/04/02 03:59:35;;;;;;;;;;;;;;;11.03;56.92;98388.30;1654898;87;20221;-58
2022/04/02 04:02:40;;;;;;;;;;;;;;;11.06;56.95;98388.69;1655092;87;20572;-60
2022/04/02 04:05:48;;;;;;;;;;;;;;;11.08;57.01;98378.35;1659523;85;20187;-59
2022/04/02 04:08:58;;;;;;;;;;;;;;;11.08;57.06;98378.88;1666857;85;20190;-59
2022/04/02 04:12:04;;;;;;;;;;;;;;;11.04;57.12;98362.06;1683099;85;20252;-60
2022/04/02 04:15:13;;;;;;;;;;;;;;;11.02;57.22;98356.52;1683329;85;20218;-59
2022/04/02 04:18:23;;;;;;;;;;;;;;;11.00;57.38;98370.44;1682589;85;20216;-59
2022/04/02 04:21:28;;;;;;;;;;;;;;;10.98;57.56;98370.34;1682625;85;20211;-58
2022/04/02 04:24:35;;;;;;;;;;;;;;;10.96;57.70;98373.83;1682886;85;20258;-59
2022/04/02 04:27:38;;;;;;;;;;;;;;;10.97;57.90;98375.00;1670779;85;20221;-58
2022/04/02 04:30:46;;;;;;;;;;;;;;;11.03;57.98;98372.72;1682188;85;20253;-56
2022/04/02 04:33:55;;;;;;;;;;;;;;;11.15;58.13;98370.87;1681772;85;20202;-58
2022/04/02 04:36:59;;;;;;;;;;;;;;;11.26;58.02;98365.16;1678997;83;20226;-59
2022/04/02 04:40:02;;;;;;;;;;;;;;;11.38;58.02;98363.34;1675884;85;20523;-59
2022/04/02 04:43:11;;;;;;;;;;;;;;;11.51;58.09;98344.00;1682283;85;20274;-59
2022/04/02 04:46:16;;;;;;;;;;;;;;;11.64;58.10;98327.38;1682753;85;20254;-58
2022/04/02 04:49:22;;;;;;;;;;;;;;;11.78;58.12;98337.12;1682773;85;20613;-58
2022/04/02 04:52:28;;;;;;;;;;;;;;;11.94;58.11;98338.64;1682764;85;20262;-58
2022/04/02 04:55:33;;;;;;;;;;;;;;;12.12;57.92;98325.39;1682484;85;20211;-58
2022/04/02 04:58:40;;;;;;;;;;;;;;;12.28;57.69;98322.48;1682754;85;20219;-58
2022/04/02 05:01:47;;;;;;;;;;;;;;;12.41;57.55;98329.97;1682707;85;20218;-57
2022/04/02 05:04:52;;;;;;;;;;;;;;;12.54;57.31;98330.27;1694220;84;20248;-58
2022/04/02 05:08:00;;;;;;;;;;;;;;;12.62;57.11;98329.92;1645522;86;20663;-57
2022/04/02 05:11:23;;;;;;;;;;;;;;;12.72;57.08;98323.27;1683241;85;20179;-59
2022/04/02 05:14:32;;;;;;;;;;;;;;;12.81;56.97;98319.92;1680962;84;20568;-58
2022/04/02 05:17:40;;;;;;;;;;;;;;;12.91;56.88;98323.44;1667612;84;20211;-57
2022/04/02 05:20:48;;;;;;;;;;;;;;;13.02;56.83;98320.71;1649423;87;20244;-59
2022/04/02 05:23:54;;;;;;;;;;;;;;;13.13;56.56;98319.00;1652378;86;20264;-59
2022/04/02 05:27:03;;;;;;;;;;;;;;;13.24;56.41;98323.67;1679094;84;20205;-59
2022/04/02 05:30:11;;;;;;;;;;;;;;;13.34;56.35;98324.70;1626905;87;20214;-59
2022/04/02 05:33:21;;;;;;;;;;;;;;;13.45;56.22;98324.36;1624907;88;20210;-59
2022/04/02 05:36:31;;;;;;;;;;;;;;;13.58;56.04;98331.48;1644867;87;20220;-58
2022/04/02 05:39:41;;;;;;;;;;;;;;;13.70;55.84;98322.66;1679800;84;20246;-56
2022/04/02 05:42:46;;;;;;;;;;;;;;;13.81;55.50;98341.03;1666414;85;20258;-61
2022/04/02 05:45:52;;;;;;;;;;;;;;;13.90;55.38;98333.51;1690103;84;20216;-57
2022/04/02 05:49:03;;;;;;;;;;;;;;;14.00;55.21;98326.80;1709207;84;20586;-56
2022/04/02 05:52:07;;;;;;;;;;;;;;;14.08;54.96;98342.09;1709165;84;20216;-58
2022/04/02 05:55:15;;;;;;;;;;;;;;;14.15;54.85;98344.12;1710185;84;20499;-58
2022/04/02 05:58:23;;;;;;;;;;;;;;;14.22;54.76;98331.05;1710260;84;20224;-59
2022/04/02 06:01:31;;;;;;;;;;;;;;;14.32;54.71;98346.37;1710712;84;20212;-57
2022/04/02 06:04:37;;;;;;;;;;;;;;;14.40;54.39;98356.97;1710330;84;20225;-57
2022/04/02 06:07:42;;;;;;;;;;;;;;;14.43;54.25;98336.67;1686674;84;20276;-58
2022/04/02 06:10:52;;;;;;;;;;;;;;;14.49;54.36;98338.41;1710274;84;20580;-58
2022/04/02 06:13:57;;;;;;;;;;;;;;;14.58;54.26;98323.16;1710001;84;20228;-60
2022/04/02 06:17:03;;;;;;;;;;;;;;;14.64;54.16;98326.81;1710017;84;20228;-58
2022/04/02 06:20:09;;;;;;;;;;;;;;;14.71;54.28;98339.88;1710414;84;20557;-57
2022/04/02 06:23:17;;;;;;;;;;;;;;;14.78;54.32;98333.64;1710524;84;20212;-57
2022/04/02 06:26:23;;;;;;;;;;;;;;;14.84;54.08;98327.14;1710456;84;20240;-58
2022/04/02 06:29:29;;;;;;;;;;;;;;;14.78;54.17;98333.11;1710514;84;20244;-58
2022/04/02 06:32:38;;;;;;;;;;;;;;;14.76;54.35;98338.02;1710542;84;20216;-59
2022/04/02 06:35:48;;;;;;;;;;;;;;;14.71;54.51;98344.02;1695967;83;20540;-59
2022/04/02 06:38:52;;;;;;;;;;;;;;;14.69;54.73;98334.63;1708899;83;20237;-58
2022/04/02 06:41:59;;;;;;;;;;;;;;;14.68;54.86;98323.86;1675842;85;20243;-59
2022/04/02 06:45:16;;;;;;;;;;;;;;;14.71;54.96;98328.86;1676795;85;20288;-57
2022/04/02 06:48:21;;;;;;;;;;;;;;;14.76;55.08;98337.20;1678913;85;20214;-59
2022/04/02 06:51:28;;;;;;;;;;;;;;;14.78;55.01;98333.64;1660595;85;20596;-58
2022/04/02 06:54:34;;;;;;;;;;;;;;;14.79;55.18;98342.21;1650626;85;20225;-59
2022/04/02 06:57:37;;;;;;;;;;;;;;;14.86;55.40;98351.11;1650673;87;20257;-58
2022/04/02 07:00:45;;;;;;;;;;;;;;;14.98;55.40;98329.83;1683182;85;20202;-57
2022/04/02 07:03:53;;;;;;;;;;;;;;;15.09;55.08;98330.25;1687788;85;20222;-57
2022/04/02 07:06:59;;;;;;;;;;;;;;;15.20;55.00;98327.92;1687739;85;20490;-55
2022/04/02 07:10:05;;;;;;;;;;;;;;;15.37;54.98;98332.83;1688164;84;20214;-57
2022/04/02 07:13:11;;;;;;;;;;;;;;;15.55;54.89;98326.19;1687894;84;20210;-58
2022/04/02 07:16:16;;;;;;;;;;;;;;;15.76;54.60;98330.29;1684560;85;20550;-57
2022/04/02 07:19:28;;;;;;;;;;;;;;;15.93;54.51;98343.47;1687955;85;20253;-57
2022/04/02 07:22:34;;;;;;;;;;;;;;;16.05;54.57;98337.24;1653836;86;20217;-59
2022/04/02 07:25:39;;;;;;;;;;;;;;;16.11;54.79;98327.09;1650223;87;20517;-56
2022/04/02 07:28:44;;;;;;;;;;;;;;;16.16;54.86;98336.25;1620183;87;20258;-58
2022/04/02 07:31:52;;;;;;;;;;;;;;;16.22;54.98;98337.95;1658596;86;20244;-58
2022/04/02 07:34:59;;;;;;;;;;;;;;;16.30;55.16;98335.26;1658853;86;20220;-57
2022/04/02 07:38:17;;;;;;;;;;;;;;;16.38;55.24;98325.95;1658865;86;20220;-58
2022/04/02 07:41:30;;;;;;;;;;;;;;;16.50;55.21;98328.58;1662867;85;20260;-58
2022/04/02 07:44:44;;;;;;;;;;;;;;;16.58;54.88;98326.72;1705449;84;20248;-58
2022/04/02 07:48:02;;;;;;;;;;;;;;;16.65;54.59;98327.88;1705823;84;20228;-58
2022/04/02 07:51:16;;;;;;;;;;;;;;;16.78;54.43;98327.39;1694270;84;20200;-58
2022/04/02 07:54:21;;;;;;;;;;;;;;;16.92;53.87;98314.81;1657650;86;20218;-58
2022/04/02 07:57:53;;;;;;;;;;;;;;;17.03;53.49;98322.88;1669967;85;20572;-58
2022/04/02 08:00:57;;;;;;;;;;;;;;;17.12;52.96;98319.06;1666260;86;20260;-58
2022/04/02 08:04:06;;;;;;;;;;;;;;;17.19;52.88;98316.34;1682716;85;20283;-56
2022/04/02 08:07:17;;;;;;;;;;;;;;;17.30;52.84;98309.75;1637766;87;20218;-56
2022/04/02 08:10:27;;;;;;;;;;;;;;;17.41;52.34;98314.80;1693304;84;20197;-57
2022/04/02 08:13:44;;;;;;;;;;;;;;;17.51;52.18;98310.70;1691943;85;20218;-58
2022/04/02 08:16:49;;;;;;;;;;;;;;;17.59;51.71;98310.19;1692845;85;20566;-57
2022/04/02 08:19:58;;;;;;;;;;;;;;;17.62;51.43;98312.41;1692948;85;20214;-58
2022/04/02 08:23:03;;;;;;;;;;;;;;;17.68;51.43;98301.09;1693094;85;20489;-57
2022/04/02 08:26:39;;;;;;;;;;;;;;;17.74;51.16;98303.34;1693812;85;20513;-57
2022/04/02 08:30:06;;;;;;;;;;;;;;;17.78;50.88;98314.97;1688423;84;20294;-58
2022/04/02 08:33:25;;;;;;;;;;;;;;;17.81;50.76;98316.34;1682434;85;20219;-56
2022/04/02 08:36:49;;;;;;;;;;;;;;;17.86;50.85;98319.13;1689436;84;20224;-56
2022/04/02 08:40:16;;;;;;;;;;;;;;;17.97;50.97;98308.91;1688694;84;20612;-57
2022/04/02 08:43:59;;;;;;;;;;;;;;;18.11;50.89;98310.06;1679628;85;20215;-57
2022/04/02 08:47:22;;;;;;;;;;;;;;;18.21;50.64;98316.44;1707305;84;20208;-57
2022/04/02 08:50:27;;;;;;;;;;;;;;;18.35;50.54;98316.72;1708180;84;20556;-58
2022/04/02 08:53:47;;;;;;;;;;;;;;;18.42;50.05;98322.86;1694162;84;20210;-57
2022/04/02 08:56:53;;;;;;;;;;;;;;;18.46;50.13;98321.19;1707840;84;20208;-57
2022/04/02 09:00:13;;;;;;;;;;;;;;;18.58;50.27;98320.38;1707408;84;20342;-57
2022/04/02 09:03:25;;;;;;;;;;;;;;;18.73;49.84;98319.81;1707250;84;20220;-57
2022/04/02 09:06:52;;;;;;;;;;;;;;;18.83;49.50;98328.67;1679299;85;20214;-57
2022/04/02 09:10:09;;;;;;;;;;;;;;;18.93;49.46;98326.71;1696099;84;20266;-58
2022/04/02 09:13:27;;;;;;;;;;;;;;;18.96;49.13;98309.52;1713593;84;20242;-57
2022/04/02 09:16:38;;;;;;;;;;;;;;;18.98;49.13;98312.03;1663332;86;20220;-58
2022/04/02 09:20:18;;;;;;;;;;;;;;;19.01;48.93;98318.41;1674942;85;20258;-57
2022/04/02 09:23:51;;;;;;;;;;;;;;;19.01;48.96;98306.73;1663010;86;20268;-57
2022/04/02 09:27:09;;;;;;;;;;;;;;;19.04;49.12;98307.55;1693820;85;20206;-58
2022/04/02 09:30:22;;;;;;;;;;;;;;;19.03;49.17;98296.20;1705442;83;20211;-57
2022/04/02 09:34:03;;;;;;;;;;;;;;;19.02;49.20;98291.78;1665084;85;20217;-56
2022/04/02 09:37:31;;;;;;;;;;;;;;;19.09;49.08;98289.52;1668304;84;20690;-57
2022/04/02 09:40:55;;;;;;;;;;;;;;;19.26;48.74;98301.14;1705055;83;21009;-56
2022/04/02 09:44:07;;;;;;;;;;;;;;;19.47;47.44;98280.28;1626743;87;20291;-58
2022/04/02 09:47:25;;;;;;;;;;;;;;;19.68;47.36;98270.75;1629616;88;20211;-56
2022/04/02 09:50:32;;;;;;;;;;;;;;;19.86;46.27;98258.97;1653876;86;20256;-60
2022/04/02 09:53:39;;;;;;;;;;;;;;;19.92;45.44;98256.42;1665973;84;20198;-59
2022/04/02 09:56:47;;;;;;;;;;;;;;;19.95;45.57;98258.63;1657234;86;20578;-57
2022/04/02 10:00:16;;;;;;;;;;;;;;;19.99;44.97;98250.01;1686966;84;20216;-57
2022/04/02 10:03:24;;;;;;;;;;;;;;;20.04;44.56;98238.86;1687517;84;20219;-57
2022/04/02 10:06:32;;;;;;;;;;;;;;;20.21;44.59;98244.32;1678917;84;20512;-57
2022/04/02 10:09:44;;;;;;;;;;;;;;;20.26;44.27;98242.06;1632999;88;20224;-58
2022/04/02 10:12:51;;;;;;;;;;;;;;;20.18;44.22;98235.73;1626767;87;20231;-57
2022/04/02 10:15:57;;;;;;;;;;;;;;;19.96;44.35;98245.03;1677187;84;20548;-59
2022/04/02 10:19:07;;;;;;;;;;;;;;;19.71;45.34;98245.19;1654397;87;20228;-56
2022/04/02 10:22:16;;;;;;;;;;;;;;;19.45;46.67;98285.28;1655930;85;20241;-60
2022/04/02 10:25:21;;;;;;;;;;;;;;;19.15;52.29;98278.68;1654543;87;20245;-60
2022/04/02 10:28:29;;;;;;;;;;;;;;;18.88;56.15;98278.22;1654604;87;20213;-58
2022/04/02 10:31:48;;;;;;;;;;;;;;;18.62;57.75;98271.05;1665184;85;20561;-59
2022/04/02 10:35:02;;;;;;;;;;;;;;;18.41;59.15;98271.34;1657108;86;20225;-59
2022/04/02 10:38:17;;;;;;;;;;;;;;;18.19;59.60;98279.88;1656758;86;20444;-59
2022/04/02 10:41:24;;;;;;;;;;;;;;;17.85;59.86;98270.42;1657847;85;20636;-60
2022/04/02 10:44:52;;;;;;;;;;;;;;;17.50;61.09;98271.70;1659701;85;20230;-57
2022/04/02 10:48:10;;;;;;;;;;;;;;;17.18;61.84;98275.12;1655489;86;20220;-61
2022/04/02 10:51:16;;;;;;;;;;;;;;;16.85;63.77;98301.76;1628692;88;20211;-59
2022/04/02 10:54:21;;;;;;;;;;;;;;;16.33;66.00;98274.83;1628507;88;20675;-58
2022/04/02 10:57:27;;;;;;;;;;;;;;;15.91;66.90;98261.49;1647282;85;20225;-58
2022/04/02 11:00:33;;;;;;;;;;;;;;;15.77;67.70;98269.06;1621489;85;20259;-59
2022/04/02 11:03:46;;;;;;;;;;;;;;;15.79;68.08;98267.70;1687656;82;20502;-57
2022/04/02 11:06:57;;;;;;;;;;;;;;;15.81;68.58;98268.84;1682754;85;20826;-58
2022/04/02 11:10:04;;;;;;;;;;;;;;;15.82;69.11;98267.20;1682922;85;20517;-57
2022/04/02 11:13:10;;;;;;;;;;;;;;;15.85;69.33;98252.05;1683504;85;20216;-58
2022/04/02 11:16:24;;;;;;;;;;;;;;;15.93;69.74;98244.14;1683473;84;20457;-57
2022/04/02 11:23:02;;;;;;;;;;;;;;;16.07;70.08;98230.18;1678835;85;20204;-58
2022/04/02 11:26:12;;;;;;;;;;;;;;;16.14;70.27;98237.67;1685369;85;20220;-57
2022/04/02 11:29:19;;;;;;;;;;;;;;;16.23;70.13;98243.02;1684621;85;20220;-59
2022/04/02 11:32:31;;;;;;;;;;;;;;;16.24;70.38;98248.81;1684689;85;20220;-59
2022/04/02 11:35:37;;;;;;;;;;;;;;;16.19;70.48;98257.05;1684618;85;20216;-57
2022/04/02 11:39:10;;;;;;;;;;;;;;;16.21;70.98;98249.88;1684895;84;20213;-60
2022/04/02 11:42:15;;;;;;;;;;;;;;;16.44;71.58;98232.41;1685125;85;20529;-59
2022/04/02 11:45:20;;;;;;;;;;;;;;;16.86;71.36;98222.73;1676741;84;20559;-57
2022/04/02 11:48:25;;;;;;;;;;;;;;;17.18;70.25;98208.78;1658390;85;20528;-58
2022/04/02 11:51:38;;;;;;;;;;;;;;;17.42;69.81;98200.28;1703777;84;20232;-57
2022/04/02 11:55:00;;;;;;;;;;;;;;;17.51;69.59;98195.36;1703536;84;20209;-59
2022/04/02 11:58:18;;;;;;;;;;;;;;;17.50;69.48;98188.72;1675582;85;20251;-58
2022/04/02 12:01:23;;;;;;;;;;;;;;;17.39;69.12;98184.23;1703474;84;20208;-58
2022/04/02 12:04:28;;;;;;;;;;;;;;;17.31;69.05;98193.06;1649145;87;20308;-58
2022/04/02 12:07:35;;;;;;;;;;;;;;;17.20;69.10;98213.49;1703203;84;20249;-59
2022/04/02 12:10:52;;;;;;;;;;;;;;;16.94;68.16;98218.62;1649319;87;20284;-58
2022/04/02 12:14:05;;;;;;;;;;;;;;;16.65;68.82;98212.66;1703780;84;20200;-59
2022/04/02 12:17:20;;;;;;;;;;;;;;;16.27;70.17;98226.19;1703208;84;20608;-58
2022/04/02 12:20:27;;;;;;;;;;;;;;;15.78;71.50;98225.20;1703350;84;20205;-59
2022/04/02 12:23:33;;;;;;;;;;;;;;;15.39;72.14;98242.47;1702436;84;20221;-58
2022/04/02 12:26:40;;;;;;;;;;;;;;;15.13;73.06;98243.22;1706508;84;20292;-60
2022/04/02 12:29:44;;;;;;;;;;;;;;;14.96;73.66;98228.67;1711662;84;20568;-60
2022/04/02 12:32:51;;;;;;;;;;;;;;;14.86;74.21;98238.17;1690661;83;20265;-60
2022/04/02 12:36:08;;;;;;;;;;;;;;;14.79;74.99;98249.94;1677781;85;20218;-58
2022/04/02 12:39:13;;;;;;;;;;;;;;;14.73;75.58;98279.31;1678938;85;20198;-60
2022/04/02 12:42:17;;;;;;;;;;;;;;;14.63;76.27;98274.22;1675790;85;20274;-59
2022/04/02 12:45:26;;;;;;;;;;;;;;;14.51;76.90;98295.48;1660407;84;20178;-59
2022/04/02 12:48:32;;;;;;;;;;;;;;;14.35;77.86;98286.16;1679599;85;20211;-60
2022/04/02 12:51:36;;;;;;;;;;;;;;;14.19;78.77;98276.52;1677514;85;20276;-58
2022/04/02 12:54:43;;;;;;;;;;;;;;;14.11;79.70;98278.31;1694923;83;20457;-58
2022/04/02 12:57:46;;;;;;;;;;;;;;;14.11;80.33;98276.93;1619018;88;20229;-59
2022/04/02 13:00:52;;;;;;;;;;;;;;;14.14;80.92;98275.90;1644563;86;20574;-59
2022/04/02 13:04:21;;;;;;;;;;;;;;;14.19;81.12;98255.87;1644188;86;20229;-58
2022/04/02 13:07:27;;;;;;;;;;;;;;;14.20;81.38;98265.26;1615267;87;20275;-58
2022/04/02 13:10:33;;;;;;;;;;;;;;;14.22;81.70;98258.94;1636243;86;20512;-59
2022/04/02 13:13:47;;;;;;;;;;;;;;;14.28;81.93;98264.88;1628650;87;20235;-58
2022/04/02 13:16:54;;;;;;;;;;;;;;;14.34;82.04;98261.64;1624312;87;20223;-60
2022/04/02 13:23:58;;;;;;;;;;;;;;;14.44;81.87;98256.31;1624587;88;20615;-60
2022/04/02 13:27:37;;;;;;;;;;;;;;;14.54;81.81;98255.09;1623058;88;20223;-60
2022/04/02 13:30:48;;;;;;;;;;;;;;;14.60;81.68;98244.44;1623357;87;20227;-57
2022/04/02 13:33:57;;;;;;;;;;;;;;;14.65;81.16;98248.08;1623382;88;20221;-58
2022/04/02 13:37:25;;;;;;;;;;;;;;;14.59;80.91;98243.59;1634021;85;20228;-58
2022/04/02 13:40:30;;;;;;;;;;;;;;;14.52;80.73;98242.11;1623770;88;20271;-58
2022/04/02 13:43:42;;;;;;;;;;;;;;;14.41;80.87;98243.05;1637078;87;20221;-58
2022/04/02 13:46:53;;;;;;;;;;;;;;;14.31;81.26;98245.64;1654669;85;20216;-58
2022/04/02 13:50:02;;;;;;;;;;;;;;;14.23;81.86;98251.00;1658881;86;20220;-59
2022/04/02 13:53:15;;;;;;;;;;;;;;;14.14;82.31;98245.63;1668292;85;20222;-59
2022/04/02 13:56:24;;;;;;;;;;;;;;;14.11;82.84;98248.85;1658497;85;20224;-61
2022/04/02 13:59:37;;;;;;;;;;;;;;;14.00;83.31;98259.40;1666933;85;20280;-58
2022/04/02 14:02:45;;;;;;;;;;;;;;;13.92;83.95;98230.11;1669069;85;20581;-58
2022/04/02 14:05:50;;;;;;;;;;;;;;;13.84;84.22;98231.37;1673880;85;20246;-57
2022/04/02 14:08:56;;;;;;;;;;;;;;;13.79;84.06;98250.53;1667674;84;20551;-59
2022/04/02 14:12:05;;;;;;;;;;;;;;;13.71;83.62;98245.96;1705709;83;20586;-59
2022/04/02 14:15:15;;;;;;;;;;;;;;;13.65;83.72;98248.33;1714505;83;20201;-59
2022/04/02 14:18:22;;;;;;;;;;;;;;;13.60;84.02;98260.61;1714380;83;20222;-60
2022/04/02 14:21:28;;;;;;;;;;;;;;;13.52;83.76;98259.91;1686780;85;20270;-57
2022/04/02 14:24:40;;;;;;;;;;;;;;;13.44;83.68;98265.83;1714567;83;20551;-58
2022/04/02 14:28:04;;;;;;;;;;;;;;;13.38;83.74;98257.73;1714860;83;20222;-59
2022/04/02 14:31:36;;;;;;;;;;;;;;;13.32;84.02;98258.69;1715597;83;20218;-59
2022/04/02 14:35:10;;;;;;;;;;;;;;;13.27;84.38;98269.04;1714988;83;20215;-58
2022/04/02 14:38:35;;;;;;;;;;;;;;;13.25;84.82;98260.77;1686754;85;20198;-58
2022/04/02 14:41:46;;;;;;;;;;;;;;;13.26;85.28;98263.27;1715166;83;20558;-59
2022/04/02 14:45:07;;;;;;;;;;;;;;;13.26;85.63;98261.89;1715537;83;20293;-60
2022/04/02 14:48:40;;;;;;;;;;;;;;;13.28;85.94;98269.89;1712897;83;20239;-57
2022/04/02 14:52:16;;;;;;;;;;;;;;;13.28;86.29;98269.89;1714661;83;20199;-58
2022/04/02 14:55:46;;;;;;;;;;;;;;;13.24;86.69;98266.78;1714385;83;20231;-57
2022/04/02 14:59:17;;;;;;;;;;;;;;;13.24;87.20;98274.22;1714057;83;20221;-59
2022/04/02 15:02:40;;;;;;;;;;;;;;;13.23;87.62;98273.37;1706175;82;20221;-57
2022/04/02 15:06:06;;;;;;;;;;;;;;;13.24;88.02;98270.09;1701220;84;20220;-57
2022/04/02 15:09:28;;;;;;;;;;;;;;;13.26;88.43;98272.88;1700885;84;20648;-57
2022/04/02 15:12:34;;;;;;;;;;;;;;;13.28;88.82;98265.77;1701292;84;20217;-59
2022/04/02 15:15:48;;;;;;;;;;;;;;;13.28;89.06;98276.22;1700928;84;20233;-58
2022/04/02 15:18:55;;;;;;;;;;;;;;;13.28;89.38;98273.48;1701181;84;20213;-58
2022/04/02 15:22:15;;;;;;;;;;;;;;;13.30;89.63;98286.41;1687958;84;20209;-58
2022/04/02 15:25:31;;;;;;;;;;;;;;;13.27;89.55;98284.16;1702236;84;20248;-59
2022/04/02 15:28:38;;;;;;;;;;;;;;;13.14;89.10;98292.70;1701928;84;20193;-58
2022/04/02 15:32:11;;;;;;;;;;;;;;;13.01;89.09;98297.61;1701355;84;20213;-59
2022/04/02 15:35:26;;;;;;;;;;;;;;;12.88;89.24;98304.70;1701024;84;20213;-58
2022/04/02 15:38:39;;;;;;;;;;;;;;;12.76;89.65;98304.73;1701495;84;20228;-58
2022/04/02 15:41:58;;;;;;;;;;;;;;;12.64;89.15;98326.38;1714075;83;20217;-58
2022/04/02 15:44:52;;;;;;;;;;;;;;;12.34;87.08;98331.98;1714095;83;20530;-59
2022/04/02 15:48:05;;;;;;;;;;;;;;;11.97;86.06;98340.09;1712424;82;20213;-61
2022/04/02 15:51:15;;;;;;;;;;;;;;;11.72;86.05;98347.61;1709490;83;20178;-59
2022/04/02 15:54:40;;;;;;;;;;;;;;;11.49;85.99;98358.45;1708672;83;20662;-58
2022/04/02 15:57:46;;;;;;;;;;;;;;;11.27;85.66;98365.48;1707848;83;20266;-57
2022/04/02 16:01:03;;;;;;;;;;;;;;;11.05;85.57;98372.48;1692950;84;20200;-59
2022/04/02 16:04:13;;;;;;;;;;;;;;;10.84;85.15;98392.08;1708180;83;20208;-58
2022/04/02 16:07:33;;;;;;;;;;;;;;;10.66;85.42;98401.61;1708543;83;20747;-59
2022/04/02 16:10:39;;;;;;;;;;;;;;;10.48;85.80;98412.81;1708216;83;20602;-58
2022/04/02 16:13:46;;;;;;;;;;;;;;;10.26;84.37;98426.56;1708431;83;20261;-58
2022/04/02 16:16:56;;;;;;;;;;;;;;;9.98;82.74;98426.61;1656373;85;20246;-59
2022/04/02 16:20:02;;;;;;;;;;;;;;;9.73;82.42;98440.22;1708708;83;20611;-60
2022/04/02 16:23:07;;;;;;;;;;;;;;;9.57;82.65;98448.06;1659422;86;20233;-59
2022/04/02 16:26:14;;;;;;;;;;;;;;;9.46;82.98;98460.51;1663608;86;20228;-59
2022/04/02 16:29:25;;;;;;;;;;;;;;;9.35;83.06;98467.16;1663927;86;20196;-59
2022/04/02 16:32:34;;;;;;;;;;;;;;;9.26;83.30;98466.53;1663625;86;20570;-59
2022/04/02 16:35:42;;;;;;;;;;;;;;;9.19;83.19;98474.44;1642631;86;20664;-59
2022/04/02 16:38:57;;;;;;;;;;;;;;;9.15;83.19;98493.13;1636646;87;20218;-60
2022/04/02 16:42:07;;;;;;;;;;;;;;;9.08;83.14;98500.50;1636065;87;20218;-59
2022/04/02 16:45:15;;;;;;;;;;;;;;;9.01;83.05;98502.39;1640016;86;20222;-59
2022/04/02 16:48:21;;;;;;;;;;;;;;;8.97;83.30;98503.33;1663298;86;20214;-58